Time;durP1;ratioP1;P1;durP2;ratioP2;P2;SDS_P1;SDS_P2;PMS_P1;PMS_P2;Temp;Humidity;BMP_temperature;BMP_pressure;BME280_temperature;BME280_humidity;BME280_pressure;Samples;Min_cycle;Max_cycle;Signal;HPM_P1;HPM_P2
2023/09/30 00:00:37;;;;;;;31.50;6.27;;;;;;;;;;5071808;28;20031;-64
2023/09/30 00:03:03;;;;;;;35.70;6.90;;;;;;;;;;5057529;28;20025;-66
2023/09/30 00:05:28;;;;;;;26.70;6.43;;;;;;;;;;5056638;28;20481;-63
2023/09/30 00:07:53;;;;;;;25.13;6.30;;;;;;;;;;5052518;28;20427;-63
2023/09/30 00:10:19;;;;;;;31.33;6.13;;;;;;;;;;5055406;28;20036;-63
2023/09/30 00:12:45;;;;;;;31.73;7.30;;;;;;;;;;5058023;28;20032;-64
2023/09/30 00:15:10;;;;;;;31.67;6.33;;;;;;;;;;5058246;28;20029;-63
2023/09/30 00:17:35;;;;;;;38.00;6.93;;;;;;;;;;5070822;28;20469;-65
2023/09/30 00:20:01;;;;;;;31.33;6.77;;;;;;;;;;5058559;28;20036;-66
2023/09/30 00:22:26;;;;;;;26.93;6.47;;;;;;;;;;5053822;28;20013;-67
2023/09/30 00:24:51;;;;;;;27.90;6.90;;;;;;;;;;5056936;28;20029;-66
2023/09/30 00:27:17;;;;;;;38.87;7.43;;;;;;;;;;5052898;28;20017;-66
2023/09/30 00:29:42;;;;;;;39.07;8.63;;;;;;;;;;5067425;28;20021;-66
2023/09/30 00:32:07;;;;;;;33.67;7.17;;;;;;;;;;5052483;28;20032;-65
2023/09/30 00:34:34;;;;;;;36.17;8.00;;;;;;;;;;5052779;28;20039;-65
2023/09/30 00:36:59;;;;;;;36.00;8.13;;;;;;;;;;5056397;28;20433;-65
2023/09/30 00:39:27;;;;;;;38.33;7.97;;;;;;;;;;5064079;28;20044;-66
2023/09/30 00:41:52;;;;;;;38.80;7.97;;;;;;;;;;5056196;28;20021;-66
2023/09/30 00:44:17;;;;;;;38.43;8.97;;;;;;;;;;5056393;28;20028;-65
2023/09/30 00:46:43;;;;;;;41.23;8.20;;;;;;;;;;5058571;28;20484;-66
2023/09/30 00:49:10;;;;;;;33.23;8.13;;;;;;;;;;5064220;28;20096;-65
2023/09/30 00:51:35;;;;;;;38.37;8.43;;;;;;;;;;5064035;28;20443;-65
2023/09/30 00:54:01;;;;;;;39.50;8.23;;;;;;;;;;5064955;28;20310;-68
2023/09/30 00:56:27;;;;;;;39.63;7.90;;;;;;;;;;5054873;28;20064;-70
2023/09/30 00:58:52;;;;;;;37.57;9.00;;;;;;;;;;5069962;28;20112;-71
2023/09/30 01:04:21;;;;;;;34.33;9.10;;;;;;;;;;5055263;28;20048;-65
2023/09/30 01:06:47;;;;;;;37.03;8.97;;;;;;;;;;5057977;28;20457;-67
2023/09/30 01:09:12;;;;;;;34.10;8.40;;;;;;;;;;5066068;28;20366;-66
2023/09/30 01:11:40;;;;;;;35.77;9.00;;;;;;;;;;5062210;28;20019;-66
2023/09/30 01:14:05;;;;;;;34.00;9.03;;;;;;;;;;5065342;28;20009;-65
2023/09/30 01:16:30;;;;;;;38.23;8.80;;;;;;;;;;5066480;28;20471;-66
2023/09/30 01:18:55;;;;;;;43.10;8.93;;;;;;;;;;5065740;28;20036;-65
2023/09/30 01:21:21;;;;;;;38.03;8.57;;;;;;;;;;5052185;28;20021;-66
2023/09/30 01:23:46;;;;;;;38.67;7.70;;;;;;;;;;5057117;28;20015;-66
2023/09/30 01:26:12;;;;;;;39.83;8.93;;;;;;;;;;5066860;28;20028;-67
2023/09/30 01:28:37;;;;;;;32.03;8.13;;;;;;;;;;5063266;28;20445;-66
2023/09/30 01:31:04;;;;;;;40.63;9.23;;;;;;;;;;5066860;28;20035;-66
2023/09/30 01:33:29;;;;;;;37.53;8.57;;;;;;;;;;5071083;28;20043;-66
2023/09/30 01:35:54;;;;;;;38.87;8.83;;;;;;;;;;5056056;28;20524;-65
2023/09/30 01:38:20;;;;;;;34.03;7.50;;;;;;;;;;5058802;28;20032;-66
2023/09/30 01:40:46;;;;;;;38.03;9.60;;;;;;;;;;5059216;28;20069;-66
2023/09/30 01:43:13;;;;;;;42.07;9.03;;;;;;;;;;5057635;28;20399;-66
2023/09/30 01:45:38;;;;;;;31.77;8.83;;;;;;;;;;5058443;28;20366;-67
2023/09/30 01:48:03;;;;;;;39.70;9.80;;;;;;;;;;5066090;28;20028;-66
2023/09/30 01:50:29;;;;;;;41.10;10.20;;;;;;;;;;5068693;28;20024;-66
2023/09/30 01:52:54;;;;;;;39.10;9.97;;;;;;;;;;5073152;28;20020;-66
2023/09/30 01:55:19;;;;;;;41.77;9.30;;;;;;;;;;5070545;28;20108;-66
2023/09/30 01:57:44;;;;;;;41.67;10.20;;;;;;;;;;5058091;28;20110;-65
2023/09/30 02:00:10;;;;;;;39.27;10.17;;;;;;;;;;5055242;28;20384;-67
2023/09/30 02:02:36;;;;;;;37.77;9.83;;;;;;;;;;5072089;28;20524;-66
2023/09/30 02:05:02;;;;;;;42.93;10.73;;;;;;;;;;5058487;28;20052;-66
2023/09/30 02:07:27;;;;;;;47.17;11.07;;;;;;;;;;5054998;28;20029;-65
2023/09/30 02:09:53;;;;;;;35.17;10.23;;;;;;;;;;5065028;28;20082;-65
2023/09/30 02:12:18;;;;;;;37.70;9.50;;;;;;;;;;5056024;28;20497;-65
2023/09/30 02:14:43;;;;;;;45.67;9.83;;;;;;;;;;5058315;28;20036;-67
2023/09/30 02:17:09;;;;;;;40.90;9.83;;;;;;;;;;5063697;28;20027;-66
2023/09/30 02:19:34;;;;;;;41.53;10.93;;;;;;;;;;5060328;28;20021;-66
2023/09/30 02:22:00;;;;;;;33.17;8.73;;;;;;;;;;5059904;28;20077;-67
2023/09/30 02:24:25;;;;;;;36.63;9.07;;;;;;;;;;5074756;28;20073;-67
2023/09/30 02:26:50;;;;;;;44.30;9.63;;;;;;;;;;5072322;28;20479;-66
2023/09/30 02:29:16;;;;;;;37.53;8.90;;;;;;;;;;5055364;28;20499;-66
2023/09/30 02:31:41;;;;;;;44.30;9.67;;;;;;;;;;5060089;28;20028;-67
2023/09/30 02:34:06;;;;;;;44.23;9.83;;;;;;;;;;5065157;28;20029;-67
2023/09/30 02:36:32;;;;;;;43.13;9.67;;;;;;;;;;5054066;28;20032;-66
2023/09/30 02:38:58;;;;;;;36.00;9.00;;;;;;;;;;5060370;28;20453;-66
2023/09/30 02:41:23;;;;;;;35.33;9.07;;;;;;;;;;5058517;28;20384;-66
2023/09/30 02:43:49;;;;;;;48.73;9.27;;;;;;;;;;5054237;28;20632;-67
2023/09/30 02:46:15;;;;;;;41.43;10.03;;;;;;;;;;5052987;28;20021;-66
2023/09/30 02:48:40;;;;;;;43.93;9.60;;;;;;;;;;5069619;28;20029;-67
2023/09/30 02:51:09;;;;;;;34.87;9.13;;;;;;;;;;5058520;28;20461;-67
2023/09/30 02:53:34;;;;;;;34.50;8.90;;;;;;;;;;5058814;28;20081;-66
2023/09/30 02:56:00;;;;;;;44.43;9.90;;;;;;;;;;5073587;28;20029;-66
2023/09/30 02:58:25;;;;;;;33.10;8.47;;;;;;;;;;5060396;28;20067;-66
2023/09/30 03:00:50;;;;;;;41.43;9.23;;;;;;;;;;5054552;28;20029;-66
2023/09/30 03:03:16;;;;;;;42.53;9.43;;;;;;;;;;5063366;28;20480;-66
2023/09/30 03:05:41;;;;;;;48.70;9.67;;;;;;;;;;5053918;28;20500;-66
2023/09/30 03:08:06;;;;;;;37.97;9.07;;;;;;;;;;5057680;28;20032;-66
2023/09/30 03:10:31;;;;;;;37.47;9.40;;;;;;;;;;5054165;28;20044;-66
2023/09/30 03:13:03;;;;;;;37.87;8.80;;;;;;;;;;5056038;28;21217;-66
2023/09/30 03:15:32;;;;;;;37.75;9.57;;;;;;;;;;5065342;28;20098;-67
2023/09/30 03:17:57;;;;;;;39.77;9.37;;;;;;;;;;5065584;28;20381;-65
2023/09/30 03:20:25;;;;;;;38.47;9.00;;;;;;;;;;5055510;28;20017;-66
2023/09/30 03:22:50;;;;;;;42.30;9.70;;;;;;;;;;5068824;28;20044;-66
2023/09/30 03:25:17;;;;;;;35.97;9.47;;;;;;;;;;5053169;28;20504;-67
2023/09/30 03:27:43;;;;;;;40.63;9.90;;;;;;;;;;5053635;28;20029;-70
2023/09/30 03:30:08;;;;;;;40.83;9.83;;;;;;;;;;5035248;28;20024;-70
2023/09/30 03:32:36;;;;;;;44.37;9.63;;;;;;;;;;5058912;28;20016;-70
2023/09/30 03:35:10;;;;;;;40.33;9.33;;;;;;;;;;5051509;28;20107;-70
2023/09/30 03:37:35;;;;;;;43.97;9.57;;;;;;;;;;5054526;28;20032;-69
2023/09/30 03:40:11;;;;;;;39.83;9.67;;;;;;;;;;5053243;28;20025;-70
2023/09/30 03:42:38;;;;;;;37.20;9.63;;;;;;;;;;5057254;28;20023;-70
2023/09/30 03:45:04;;;;;;;44.37;10.27;;;;;;;;;;5062526;28;20358;-70
2023/09/30 03:47:31;;;;;;;40.70;9.80;;;;;;;;;;5056997;28;20040;-70
2023/09/30 03:49:58;;;;;;;48.93;10.07;;;;;;;;;;5060448;28;20051;-70
2023/09/30 03:52:25;;;;;;;40.20;9.70;;;;;;;;;;5056608;28;20071;-70
2023/09/30 03:54:50;;;;;;;36.90;10.17;;;;;;;;;;5058031;28;20017;-70
2023/09/30 03:57:16;;;;;;;43.03;9.43;;;;;;;;;;5071970;28;20387;-71
2023/09/30 03:59:41;;;;;;;36.33;9.30;;;;;;;;;;5073128;28;20017;-71
2023/09/30 04:02:08;;;;;;;46.70;10.73;;;;;;;;;;5067770;28;20021;-70
2023/09/30 04:04:34;;;;;;;39.30;10.77;;;;;;;;;;5062293;28;20040;-70
2023/09/30 04:07:05;;;;;;;41.53;9.80;;;;;;;;;;5060356;28;20031;-71
2023/09/30 04:09:31;;;;;;;43.70;10.07;;;;;;;;;;5041860;28;20017;-70
2023/09/30 04:11:57;;;;;;;38.67;10.03;;;;;;;;;;5052817;28;20067;-69
2023/09/30 04:14:22;;;;;;;44.70;11.40;;;;;;;;;;5055268;28;20457;-70
2023/09/30 04:16:48;;;;;;;39.97;10.57;;;;;;;;;;5063421;28;20103;-70
2023/09/30 04:19:16;;;;;;;39.33;9.30;;;;;;;;;;5058305;28;20075;-70
2023/09/30 04:21:45;;;;;;;41.13;10.40;;;;;;;;;;5066464;28;20526;-70
2023/09/30 04:24:11;;;;;;;31.93;9.73;;;;;;;;;;5058947;28;20027;-70
2023/09/30 04:26:36;;;;;;;40.13;9.83;;;;;;;;;;5056405;28;20024;-70
2023/09/30 04:29:10;;;;;;;35.63;10.37;;;;;;;;;;5055367;28;20481;-70
2023/09/30 04:31:35;;;;;;;44.17;10.83;;;;;;;;;;5052761;28;20105;-70
2023/09/30 04:34:01;;;;;;;44.50;11.50;;;;;;;;;;5053591;28;20071;-71
2023/09/30 04:36:26;;;;;;;39.17;9.90;;;;;;;;;;5061827;28;20490;-66
2023/09/30 04:38:51;;;;;;;38.13;10.97;;;;;;;;;;5036112;28;20504;-65
2023/09/30 04:41:16;;;;;;;34.60;9.43;;;;;;;;;;5066157;28;20021;-65
2023/09/30 04:43:43;;;;;;;53.73;11.13;;;;;;;;;;5053432;28;20025;-66
2023/09/30 04:46:08;;;;;;;38.77;10.20;;;;;;;;;;5053578;28;20044;-65
2023/09/30 04:48:34;;;;;;;33.63;10.03;;;;;;;;;;5061007;28;20025;-65
2023/09/30 04:50:59;;;;;;;38.17;11.23;;;;;;;;;;5055737;28;20051;-65
2023/09/30 04:53:24;;;;;;;34.67;9.93;;;;;;;;;;5052322;28;20381;-67
2023/09/30 04:55:50;;;;;;;35.77;10.00;;;;;;;;;;5052188;28;20083;-66
2023/09/30 04:58:15;;;;;;;32.67;10.50;;;;;;;;;;5064229;28;20017;-65
2023/09/30 05:00:40;;;;;;;34.40;10.43;;;;;;;;;;5073957;28;20473;-67
2023/09/30 05:03:06;;;;;;;41.73;10.53;;;;;;;;;;5060898;28;20029;-67
2023/09/30 05:05:32;;;;;;;39.53;9.93;;;;;;;;;;5058701;28;20074;-65
2023/09/30 05:07:57;;;;;;;36.33;9.47;;;;;;;;;;5060194;28;20025;-66
2023/09/30 05:10:24;;;;;;;32.60;10.47;;;;;;;;;;5065756;28;20024;-66
2023/09/30 05:12:49;;;;;;;34.10;9.77;;;;;;;;;;5057929;28;20451;-65
2023/09/30 05:15:15;;;;;;;29.77;9.10;;;;;;;;;;5064483;28;20099;-66
2023/09/30 05:17:44;;;;;;;35.27;9.87;;;;;;;;;;5040879;28;20024;-65
2023/09/30 05:20:10;;;;;;;32.60;9.93;;;;;;;;;;5073105;28;20048;-66
2023/09/30 05:22:36;;;;;;;41.60;10.13;;;;;;;;;;5073401;28;20023;-66
2023/09/30 05:25:01;;;;;;;37.13;9.73;;;;;;;;;;5070717;28;20029;-66
2023/09/30 05:27:27;;;;;;;34.77;9.47;;;;;;;;;;5059583;28;20047;-65
2023/09/30 05:29:52;;;;;;;36.70;8.87;;;;;;;;;;5071050;28;20024;-65
2023/09/30 05:32:18;;;;;;;36.43;9.17;;;;;;;;;;5094033;28;20016;-66
2023/09/30 05:34:43;;;;;;;37.67;9.10;;;;;;;;;;5071600;28;20379;-65
2023/09/30 05:37:09;;;;;;;30.73;8.97;;;;;;;;;;5073288;28;20059;-65
2023/09/30 05:39:34;;;;;;;32.70;9.00;;;;;;;;;;5075200;28;20013;-65
2023/09/30 05:42:00;;;;;;;32.80;9.77;;;;;;;;;;5076121;28;20484;-66
2023/09/30 05:44:27;;;;;;;33.90;9.03;;;;;;;;;;5075465;28;20091;-66
2023/09/30 05:46:53;;;;;;;30.53;9.07;;;;;;;;;;5067498;28;20016;-71
2023/09/30 05:49:19;;;;;;;31.77;8.77;;;;;;;;;;5073848;28;20017;-70
2023/09/30 05:51:44;;;;;;;32.50;9.57;;;;;;;;;;5074875;28;20093;-70
2023/09/30 05:54:09;;;;;;;34.90;9.80;;;;;;;;;;5060122;28;20553;-71
2023/09/30 05:56:35;;;;;;;31.50;8.90;;;;;;;;;;5070236;28;20024;-72
2023/09/30 05:59:01;;;;;;;30.47;8.30;;;;;;;;;;5056752;28;20017;-72
2023/09/30 06:01:27;;;;;;;25.17;8.20;;;;;;;;;;5075301;28;20023;-72
2023/09/30 06:03:53;;;;;;;26.23;8.40;;;;;;;;;;5074709;28;20044;-71
2023/09/30 06:06:18;;;;;;;34.80;8.50;;;;;;;;;;5059710;28;20111;-71
2023/09/30 06:08:46;;;;;;;30.57;8.17;;;;;;;;;;5061779;28;20155;-71
2023/09/30 06:11:19;;;;;;;28.67;7.73;;;;;;;;;;5055203;28;20032;-72
2023/09/30 06:13:44;;;;;;;29.53;8.10;;;;;;;;;;5058754;28;20365;-71
2023/09/30 06:16:11;;;;;;;26.30;7.67;;;;;;;;;;5068524;28;20036;-71
2023/09/30 06:18:36;;;;;;;24.80;7.57;;;;;;;;;;5060524;28;20058;-72
2023/09/30 06:21:01;;;;;;;26.53;7.97;;;;;;;;;;5055971;28;20408;-72
2023/09/30 06:23:29;;;;;;;23.83;7.37;;;;;;;;;;5060384;28;20135;-72
2023/09/30 06:25:57;;;;;;;26.10;6.67;;;;;;;;;;5076258;28;20028;-70
2023/09/30 06:28:26;;;;;;;23.53;6.77;;;;;;;;;;5047100;28;20455;-65
2023/09/30 06:30:54;;;;;;;24.13;6.77;;;;;;;;;;5058567;28;20033;-65
2023/09/30 06:33:20;;;;;;;22.67;6.80;;;;;;;;;;5054879;28;20461;-65
2023/09/30 06:35:50;;;;;;;22.27;6.70;;;;;;;;;;5054505;28;20090;-65
2023/09/30 06:38:19;;;;;;;19.43;6.60;;;;;;;;;;5061128;28;20041;-65
2023/09/30 06:40:46;;;;;;;22.13;6.20;;;;;;;;;;5059139;28;20418;-65
2023/09/30 06:43:11;;;;;;;17.63;5.20;;;;;;;;;;5054287;28;20504;-65
2023/09/30 06:45:41;;;;;;;15.07;5.03;;;;;;;;;;5056023;28;20045;-66
2023/09/30 06:48:06;;;;;;;13.23;5.07;;;;;;;;;;5054727;28;20027;-65
2023/09/30 06:50:32;;;;;;;14.20;4.70;;;;;;;;;;5054179;28;20029;-66
2023/09/30 06:52:57;;;;;;;12.07;4.30;;;;;;;;;;5063053;28;20033;-66
2023/09/30 06:55:22;;;;;;;16.10;4.68;;;;;;;;;;5053900;28;20123;-66
2023/09/30 06:57:47;;;;;;;16.38;5.40;;;;;;;;;;5063948;28;20070;-65
2023/09/30 07:00:13;;;;;;;14.93;5.20;;;;;;;;;;5053912;28;20103;-66
2023/09/30 07:02:40;;;;;;;20.42;5.90;;;;;;;;;;5060561;28;20037;-66
2023/09/30 07:05:06;;;;;;;19.75;5.90;;;;;;;;;;5073023;28;20053;-67
2023/09/30 07:07:31;;;;;;;18.95;5.90;;;;;;;;;;5073710;28;20490;-65
2023/09/30 07:09:56;;;;;;;16.45;5.45;;;;;;;;;;5057877;28;20025;-65
2023/09/30 07:12:22;;;;;;;14.73;5.18;;;;;;;;;;5049757;28;20056;-65
2023/09/30 07:14:47;;;;;;;19.65;5.63;;;;;;;;;;5057342;28;20469;-65
2023/09/30 07:17:14;;;;;;;19.15;5.00;;;;;;;;;;5077832;28;20020;-67
2023/09/30 07:19:40;;;;;;;15.05;5.10;;;;;;;;;;5079488;28;20108;-65
2023/09/30 07:22:05;;;;;;;15.80;5.05;;;;;;;;;;5078489;28;20036;-66
2023/09/30 07:24:30;;;;;;;15.45;5.28;;;;;;;;;;5058177;28;20079;-65
2023/09/30 07:26:55;;;;;;;17.65;5.03;;;;;;;;;;5063754;28;20111;-65
2023/09/30 07:29:21;;;;;;;12.45;4.97;;;;;;;;;;5065454;28;20027;-65
2023/09/30 07:31:46;;;;;;;16.20;4.78;;;;;;;;;;5053295;28;20009;-66
2023/09/30 07:34:11;;;;;;;13.48;4.45;;;;;;;;;;5057851;28;20374;-65
2023/09/30 07:36:39;;;;;;;15.80;4.90;;;;;;;;;;5062995;28;20040;-65
2023/09/30 07:39:05;;;;;;;15.48;4.63;;;;;;;;;;5077026;28;20049;-67
2023/09/30 07:41:34;;;;;;;12.90;4.85;;;;;;;;;;5081501;28;20016;-65
2023/09/30 07:43:59;;;;;;;11.05;4.28;;;;;;;;;;5071196;28;20076;-65
2023/09/30 07:46:24;;;;;;;14.60;4.35;;;;;;;;;;5055300;28;20121;-67
2023/09/30 07:48:50;;;;;;;12.95;4.55;;;;;;;;;;5053072;28;20056;-67
2023/09/30 07:51:15;;;;;;;10.57;4.55;;;;;;;;;;5066738;28;20031;-65
2023/09/30 07:53:40;;;;;;;9.90;4.13;;;;;;;;;;5073400;28;20028;-66
2023/09/30 07:56:06;;;;;;;12.90;4.18;;;;;;;;;;5061498;28;20491;-64
2023/09/30 07:58:31;;;;;;;13.82;4.82;;;;;;;;;;5065465;28;20086;-65
2023/09/30 08:00:56;;;;;;;13.43;4.15;;;;;;;;;;5056400;28;20420;-66
2023/09/30 08:03:21;;;;;;;13.50;4.13;;;;;;;;;;5057369;28;20408;-66
2023/09/30 08:05:47;;;;;;;12.23;4.45;;;;;;;;;;5070302;28;20467;-67
2023/09/30 08:08:12;;;;;;;13.95;4.30;;;;;;;;;;5070695;28;20413;-66
2023/09/30 08:10:37;;;;;;;13.50;4.55;;;;;;;;;;5060560;28;20368;-66
2023/09/30 08:13:03;;;;;;;12.73;4.22;;;;;;;;;;5069998;28;20376;-66
2023/09/30 08:15:28;;;;;;;13.52;4.03;;;;;;;;;;5052917;28;20419;-66
2023/09/30 08:17:54;;;;;;;10.18;4.20;;;;;;;;;;5053802;28;20555;-71
2023/09/30 08:20:19;;;;;;;11.13;4.25;;;;;;;;;;5061308;28;20516;-71
2023/09/30 08:22:44;;;;;;;11.85;4.35;;;;;;;;;;5070379;28;20143;-70
2023/09/30 08:25:10;;;;;;;13.45;4.10;;;;;;;;;;5059202;28;20025;-70
2023/09/30 08:27:36;;;;;;;14.05;3.90;;;;;;;;;;5056549;28;20021;-70
2023/09/30 08:30:04;;;;;;;13.65;4.45;;;;;;;;;;5057561;28;20150;-70
2023/09/30 08:32:31;;;;;;;9.30;3.85;;;;;;;;;;5064755;28;20021;-71
2023/09/30 08:34:58;;;;;;;13.85;4.47;;;;;;;;;;5061081;28;20468;-71
2023/09/30 08:37:23;;;;;;;10.10;3.90;;;;;;;;;;5058958;28;20021;-70
2023/09/30 08:39:50;;;;;;;12.43;4.70;;;;;;;;;;5065729;28;20031;-68
2023/09/30 08:42:18;;;;;;;10.88;4.78;;;;;;;;;;5068914;28;20469;-68
2023/09/30 08:44:44;;;;;;;14.60;4.50;;;;;;;;;;5068909;28;20016;-69
2023/09/30 08:47:09;;;;;;;12.23;4.28;;;;;;;;;;5059698;28;20017;-69
2023/09/30 08:49:40;;;;;;;11.95;4.22;;;;;;;;;;5061958;28;20381;-70
2023/09/30 08:52:06;;;;;;;14.82;5.15;;;;;;;;;;5070484;28;20028;-70
2023/09/30 08:54:31;;;;;;;10.88;4.25;;;;;;;;;;5074232;28;20016;-69
2023/09/30 08:56:57;;;;;;;10.43;4.00;;;;;;;;;;5039910;28;20036;-69
2023/09/30 08:59:24;;;;;;;11.82;4.53;;;;;;;;;;5066346;28;20029;-70
2023/09/30 09:01:49;;;;;;;11.80;4.63;;;;;;;;;;5060766;28;20058;-70
2023/09/30 09:04:14;;;;;;;12.73;4.40;;;;;;;;;;5063876;28;20044;-70
2023/09/30 09:06:41;;;;;;;10.05;3.47;;;;;;;;;;5060757;28;20031;-70
2023/09/30 09:09:16;;;;;;;11.65;3.80;;;;;;;;;;5060135;28;20027;-71
2023/09/30 09:11:42;;;;;;;13.13;4.35;;;;;;;;;;5056002;28;20039;-70
2023/09/30 09:14:08;;;;;;;9.35;3.70;;;;;;;;;;5075583;28;20032;-70
2023/09/30 09:16:33;;;;;;;14.30;4.63;;;;;;;;;;5065914;28;20029;-69
2023/09/30 09:18:59;;;;;;;14.13;4.78;;;;;;;;;;5067831;28;20082;-69
2023/09/30 09:21:26;;;;;;;10.57;4.50;;;;;;;;;;5075436;28;20465;-70
2023/09/30 09:23:51;;;;;;;14.82;4.60;;;;;;;;;;5075490;28;20015;-70
2023/09/30 09:26:24;;;;;;;13.23;4.38;;;;;;;;;;5058965;28;20104;-69
2023/09/30 09:28:49;;;;;;;11.60;4.35;;;;;;;;;;5069262;28;20025;-70
2023/09/30 09:31:25;;;;;;;11.45;4.70;;;;;;;;;;5070941;28;20494;-70
2023/09/30 09:33:51;;;;;;;10.80;4.47;;;;;;;;;;5074967;28;20021;-70
2023/09/30 09:36:17;;;;;;;11.85;4.45;;;;;;;;;;5075369;28;20024;-70
2023/09/30 09:38:45;;;;;;;12.98;4.13;;;;;;;;;;5075281;28;20077;-69
2023/09/30 09:41:10;;;;;;;11.13;4.18;;;;;;;;;;5072371;28;20087;-70
2023/09/30 09:43:41;;;;;;;11.07;4.22;;;;;;;;;;5073759;28;20081;-70
2023/09/30 09:46:07;;;;;;;10.32;3.90;;;;;;;;;;5075639;28;20031;-70
2023/09/30 09:48:34;;;;;;;11.02;3.55;;;;;;;;;;5059789;28;20021;-70
2023/09/30 09:51:00;;;;;;;10.98;4.20;;;;;;;;;;5055259;28;20063;-70
2023/09/30 09:53:28;;;;;;;12.88;3.80;;;;;;;;;;5055240;28;20021;-70
2023/09/30 09:55:53;;;;;;;8.98;3.60;;;;;;;;;;5055531;28;20473;-70
2023/09/30 09:58:20;;;;;;;11.18;3.67;;;;;;;;;;5055975;28;20039;-70
2023/09/30 10:00:45;;;;;;;10.07;3.72;;;;;;;;;;5074478;28;20021;-70
2023/09/30 10:03:11;;;;;;;12.95;4.28;;;;;;;;;;5071628;28;20020;-70
2023/09/30 10:05:39;;;;;;;12.15;3.83;;;;;;;;;;5072426;28;20036;-70
2023/09/30 10:08:07;;;;;;;14.82;3.97;;;;;;;;;;5058890;28;20032;-70
2023/09/30 10:10:35;;;;;;;12.07;3.42;;;;;;;;;;5055090;28;20013;-70
2023/09/30 10:13:03;;;;;;;8.10;3.45;;;;;;;;;;5061864;28;20531;-70
2023/09/30 10:15:28;;;;;;;10.30;3.55;;;;;;;;;;5068568;28;20031;-70
2023/09/30 10:17:59;;;;;;;14.00;3.45;;;;;;;;;;5069621;28;20025;-70
2023/09/30 10:20:28;;;;;;;11.15;3.20;;;;;;;;;;5074910;28;20016;-70
2023/09/30 10:23:12;;;;;;;9.80;3.00;;;;;;;;;;5058747;28;20070;-70
2023/09/30 10:25:40;;;;;;;8.88;2.70;;;;;;;;;;5055748;28;20020;-70
2023/09/30 10:28:49;;;;;;;10.63;3.20;;;;;;;;;;5056866;28;20461;-70
2023/09/30 10:31:24;;;;;;;12.18;2.88;;;;;;;;;;5010685;28;20026;-70
2023/09/30 10:33:58;;;;;;;10.88;2.88;;;;;;;;;;5002557;28;20034;-70
2023/09/30 10:36:28;;;;;;;10.05;2.40;;;;;;;;;;5012389;28;20481;-71
2023/09/30 10:38:53;;;;;;;11.43;2.78;;;;;;;;;;5004631;28;20049;-70
2023/09/30 10:41:38;;;;;;;12.85;2.78;;;;;;;;;;4992622;28;20030;-72
2023/09/30 10:44:22;;;;;;;8.77;2.20;;;;;;;;;;4998254;28;20022;-71
2023/09/30 10:46:48;;;;;;;9.35;2.60;;;;;;;;;;5009670;28;20030;-71
2023/09/30 10:49:25;;;;;;;7.88;2.15;;;;;;;;;;4995206;28;20052;-70
2023/09/30 10:51:54;;;;;;;10.57;2.25;;;;;;;;;;4992965;28;20054;-72
2023/09/30 10:54:30;;;;;;;9.35;3.00;;;;;;;;;;4996394;28;20034;-71
2023/09/30 10:56:58;;;;;;;8.40;2.50;;;;;;;;;;4991820;28;20498;-70
2023/09/30 10:59:25;;;;;;;7.15;2.10;;;;;;;;;;4992662;28;20022;-70
2023/09/30 11:01:51;;;;;;;6.35;1.98;;;;;;;;;;5025787;28;20052;-71
2023/09/30 11:04:17;;;;;;;8.77;2.72;;;;;;;;;;5054069;28;20045;-70
2023/09/30 11:06:43;;;;;;;7.45;1.95;;;;;;;;;;5054741;28;20473;-70
2023/09/30 11:09:13;;;;;;;8.55;2.40;;;;;;;;;;5056164;28;20074;-70
2023/09/30 11:11:43;;;;;;;6.50;2.00;;;;;;;;;;5035965;28;20489;-71
2023/09/30 11:14:23;;;;;;;8.32;2.00;;;;;;;;;;5070946;28;20024;-72
2023/09/30 11:16:50;;;;;;;9.20;2.10;;;;;;;;;;5062458;28;20082;-72
2023/09/30 11:19:15;;;;;;;8.77;2.10;;;;;;;;;;5054554;28;20021;-72
2023/09/30 11:21:40;;;;;;;9.15;2.38;;;;;;;;;;5071374;28;20026;-70
2023/09/30 11:24:07;;;;;;;8.65;2.33;;;;;;;;;;5055290;28;20108;-72
2023/09/30 11:26:32;;;;;;;7.93;2.03;;;;;;;;;;5059324;28;20037;-72
2023/09/30 11:29:05;;;;;;;8.65;2.25;;;;;;;;;;5072828;28;20032;-72
2023/09/30 11:31:33;;;;;;;8.23;2.25;;;;;;;;;;5071455;28;20025;-72
2023/09/30 11:34:03;;;;;;;6.78;1.60;;;;;;;;;;5067502;28;20072;-71
2023/09/30 11:36:29;;;;;;;11.20;2.10;;;;;;;;;;5054026;28;20029;-70
2023/09/30 11:38:54;;;;;;;11.73;2.20;;;;;;;;;;5053270;28;20476;-72
2023/09/30 11:41:19;;;;;;;6.65;1.80;;;;;;;;;;5053550;28;20025;-70
2023/09/30 11:44:04;;;;;;;10.75;2.95;;;;;;;;;;5052890;28;20176;-71
2023/09/30 11:46:30;;;;;;;10.23;2.47;;;;;;;;;;5054143;28;20035;-70
2023/09/30 11:49:02;;;;;;;12.40;2.58;;;;;;;;;;5066350;28;20427;-69
2023/09/30 11:51:28;;;;;;;9.30;2.30;;;;;;;;;;5072797;28;20038;-70
2023/09/30 11:53:54;;;;;;;10.10;2.38;;;;;;;;;;5072334;28;20115;-70
2023/09/30 11:56:19;;;;;;;8.32;2.10;;;;;;;;;;5066071;28;20469;-69
2023/09/30 11:58:46;;;;;;;6.95;2.05;;;;;;;;;;5060215;28;20017;-69
2023/09/30 12:01:13;;;;;;;9.35;2.25;;;;;;;;;;5072351;28;20016;-69
2023/09/30 12:03:39;;;;;;;6.03;2.00;;;;;;;;;;5070743;28;20040;-69
2023/09/30 12:06:05;;;;;;;10.45;2.55;;;;;;;;;;5068941;28;20060;-69
2023/09/30 12:08:30;;;;;;;8.45;2.42;;;;;;;;;;5058002;28;20487;-69
2023/09/30 12:10:56;;;;;;;12.75;2.40;;;;;;;;;;5071243;28;20020;-69
2023/09/30 12:13:21;;;;;;;6.88;2.20;;;;;;;;;;5054585;28;20029;-69
2023/09/30 12:15:46;;;;;;;8.90;2.50;;;;;;;;;;5053291;28;20021;-68
2023/09/30 12:18:13;;;;;;;10.48;2.88;;;;;;;;;;5070728;28;20024;-71
2023/09/30 12:20:41;;;;;;;7.40;2.30;;;;;;;;;;5070715;28;20013;-71
2023/09/30 12:23:06;;;;;;;11.25;2.45;;;;;;;;;;5067688;28;20013;-71
2023/09/30 12:25:31;;;;;;;11.93;2.70;;;;;;;;;;5052693;28;20025;-71
2023/09/30 12:27:57;;;;;;;8.48;2.63;;;;;;;;;;5056246;28;20099;-70
2023/09/30 12:30:22;;;;;;;12.48;2.80;;;;;;;;;;5056672;28;20028;-69
2023/09/30 12:32:47;;;;;;;14.23;3.17;;;;;;;;;;5052543;28;20029;-70
2023/09/30 12:35:12;;;;;;;9.18;2.55;;;;;;;;;;5071420;28;20030;-70
2023/09/30 12:37:38;;;;;;;9.93;2.72;;;;;;;;;;5064662;28;20093;-70
2023/09/30 12:40:06;;;;;;;10.73;2.70;;;;;;;;;;5052798;28;20024;-70
2023/09/30 12:42:32;;;;;;;10.85;2.72;;;;;;;;;;5052826;28;20464;-71
2023/09/30 12:44:57;;;;;;;11.52;2.70;;;;;;;;;;5052902;28;20036;-70
2023/09/30 12:47:22;;;;;;;11.70;2.30;;;;;;;;;;5052423;28;20029;-70
2023/09/30 12:49:47;;;;;;;7.80;2.10;;;;;;;;;;5063752;28;20055;-70
2023/09/30 12:52:13;;;;;;;9.77;2.42;;;;;;;;;;5069329;28;20016;-71
2023/09/30 12:54:39;;;;;;;8.55;2.20;;;;;;;;;;5071999;28;20066;-72
2023/09/30 12:57:07;;;;;;;9.10;2.55;;;;;;;;;;5072351;28;20024;-67
2023/09/30 12:59:34;;;;;;;10.77;2.40;;;;;;;;;;5072261;28;20020;-67
2023/09/30 13:01:59;;;;;;;14.73;2.40;;;;;;;;;;5066963;28;20036;-67
2023/09/30 13:04:25;;;;;;;10.25;2.80;;;;;;;;;;5068848;28;20040;-67
2023/09/30 13:06:50;;;;;;;11.18;2.67;;;;;;;;;;5054289;28;20021;-67
2023/09/30 13:09:16;;;;;;;8.40;2.35;;;;;;;;;;5060331;28;20499;-68
2023/09/30 13:11:41;;;;;;;7.57;2.03;;;;;;;;;;5066209;28;20538;-67
2023/09/30 13:14:07;;;;;;;5.70;1.52;;;;;;;;;;5059158;28;20028;-66
2023/09/30 13:16:32;;;;;;;10.63;2.00;;;;;;;;;;5052529;28;20029;-67
2023/09/30 13:18:57;;;;;;;7.97;1.80;;;;;;;;;;5064431;28;20381;-66
2023/09/30 13:21:25;;;;;;;8.35;2.00;;;;;;;;;;5073723;28;20036;-66
2023/09/30 13:23:50;;;;;;;9.57;1.70;;;;;;;;;;5065295;28;20143;-66
2023/09/30 13:26:16;;;;;;;10.27;2.15;;;;;;;;;;5061045;28;20058;-66
2023/09/30 13:28:41;;;;;;;5.90;1.65;;;;;;;;;;5075587;28;20020;-66
2023/09/30 13:31:07;;;;;;;5.93;1.98;;;;;;;;;;5068679;28;20102;-66
2023/09/30 13:33:32;;;;;;;11.73;2.30;;;;;;;;;;5058346;28;20419;-66
2023/09/30 13:35:58;;;;;;;8.45;2.13;;;;;;;;;;5072779;28;20028;-67
2023/09/30 13:38:23;;;;;;;6.80;2.17;;;;;;;;;;5071279;28;20384;-66
2023/09/30 13:40:49;;;;;;;10.02;2.35;;;;;;;;;;5055505;28;20092;-66
2023/09/30 13:43:14;;;;;;;7.38;1.88;;;;;;;;;;5055629;28;20052;-66
2023/09/30 13:45:39;;;;;;;17.05;2.72;;;;;;;;;;5067757;28;20029;-66
2023/09/30 13:48:06;;;;;;;10.07;2.33;;;;;;;;;;5075405;28;20023;-66
2023/09/30 13:50:31;;;;;;;7.88;2.10;;;;;;;;;;5072181;28;20021;-66
2023/09/30 13:52:57;;;;;;;7.53;2.15;;;;;;;;;;5075768;28;20451;-66
2023/09/30 13:55:22;;;;;;;8.23;2.10;;;;;;;;;;5071973;28;20031;-68
2023/09/30 13:57:48;;;;;;;11.30;2.08;;;;;;;;;;5075329;28;20047;-67
2023/09/30 14:00:14;;;;;;;6.65;2.05;;;;;;;;;;5075387;28;20090;-66
2023/09/30 14:02:39;;;;;;;11.02;2.20;;;;;;;;;;5073991;28;20473;-66
2023/09/30 14:05:07;;;;;;;9.80;2.33;;;;;;;;;;5071110;28;20055;-66
2023/09/30 14:07:33;;;;;;;8.82;2.30;;;;;;;;;;5062553;28;20027;-73
2023/09/30 14:09:58;;;;;;;9.63;2.40;;;;;;;;;;5055180;28;20536;-73
2023/09/30 14:12:23;;;;;;;8.73;2.33;;;;;;;;;;5054917;28;20021;-74
2023/09/30 14:14:49;;;;;;;9.18;2.40;;;;;;;;;;5063184;28;20469;-72
2023/09/30 14:17:15;;;;;;;9.10;2.42;;;;;;;;;;5072991;28;20099;-73
2023/09/30 14:19:40;;;;;;;12.63;2.30;;;;;;;;;;5074929;28;20026;-72
2023/09/30 14:22:06;;;;;;;10.40;2.28;;;;;;;;;;5068310;28;20017;-72
2023/09/30 14:24:33;;;;;;;9.25;1.98;;;;;;;;;;5055214;28;20101;-72
2023/09/30 14:26:58;;;;;;;10.40;1.98;;;;;;;;;;5061024;28;20103;-72
2023/09/30 14:29:24;;;;;;;8.82;2.50;;;;;;;;;;5074320;28;20044;-72